createdAt,value
2023-01-09T00:00:32.394Z,95270.69
2023-01-09T00:02:58.858Z,95281.66
2023-01-09T00:05:25.628Z,95271.53
2023-01-09T00:07:52.154Z,95263.03
2023-01-09T00:10:18.731Z,95269.00
2023-01-09T00:12:45.256Z,95257.19
2023-01-09T00:15:12.082Z,95242.84
2023-01-09T00:17:38.658Z,95239.44
2023-01-09T00:20:07.704Z,95240.28
2023-01-09T00:22:34.059Z,95227.63
2023-01-09T00:25:00.400Z,95220.91
2023-01-09T00:27:26.834Z,95221.78
2023-01-09T00:29:53.243Z,95219.22
2023-01-09T00:32:21.089Z,95203.22
2023-01-09T00:34:47.593Z,95218.41
2023-01-09T00:37:13.998Z,95221.78
2023-01-09T00:39:41.832Z,95210.81
2023-01-09T00:42:12.622Z,95220.13
2023-01-09T00:44:46.530Z,95211.69
2023-01-09T00:47:30.534Z,95211.72
2023-01-09T00:50:00.782Z,95216.78
2023-01-09T00:52:28.017Z,95218.47
2023-01-09T00:54:54.439Z,95211.75
2023-01-09T00:57:20.941Z,95210.94
2023-01-09T00:59:47.353Z,95206.72
2023-01-09T01:02:13.902Z,95188.13
2023-01-09T01:04:59.061Z,95185.59
2023-01-09T01:07:38.510Z,95192.41
2023-01-09T01:10:25.893Z,95195.75
2023-01-09T01:12:53.086Z,95193.22
2023-01-09T01:15:20.394Z,95193.28
2023-01-09T01:17:47.082Z,95194.94
2023-01-09T01:20:16.892Z,95199.16
2023-01-09T01:22:43.415Z,95205.06
2023-01-09T01:25:11.827Z,95198.31
2023-01-09T01:27:39.172Z,95192.41
2023-01-09T01:30:07.481Z,95202.53
2023-01-09T01:32:34.019Z,95211.81
2023-01-09T01:35:00.465Z,95219.38
2023-01-09T01:37:27.736Z,95219.41
2023-01-09T01:39:54.444Z,95221.97
2023-01-09T01:42:20.948Z,95227.94
2023-01-09T01:45:07.825Z,95229.63
2023-01-09T01:47:55.860Z,95217.78
2023-01-09T01:50:24.827Z,95218.66
2023-01-09T01:53:07.824Z,95209.34
2023-01-09T01:55:38.873Z,95211.03
2023-01-09T01:58:07.768Z,95199.16
2023-01-09T02:00:40.232Z,95199.19
2023-01-09T02:03:07.825Z,95189.00
2023-01-09T02:05:36.936Z,95201.72
2023-01-09T02:08:04.425Z,95182.31
2023-01-09T02:10:32.081Z,95173.84
2023-01-09T02:12:59.718Z,95182.28
2023-01-09T02:15:29.962Z,95179.78
2023-01-09T02:18:14.671Z,95179.78
2023-01-09T02:20:54.833Z,95178.09
2023-01-09T02:23:21.192Z,95183.19
2023-01-09T02:26:24.777Z,95191.59
2023-01-09T02:29:13.050Z,95183.16
2023-01-09T02:32:00.615Z,95181.47
2023-01-09T02:34:53.024Z,95169.69
2023-01-09T02:37:39.000Z,95167.19
2023-01-09T02:40:22.454Z,95177.31
2023-01-09T02:42:49.225Z,95175.69
2023-01-09T02:45:15.646Z,95171.44
2023-01-09T02:47:45.141Z,95162.13
2023-01-09T02:50:19.079Z,95167.19
2023-01-09T02:53:06.917Z,95161.28
2023-01-09T02:55:51.663Z,95162.16
2023-01-09T02:58:36.686Z,95153.69
2023-01-09T03:01:22.128Z,95162.94
2023-01-09T03:03:59.510Z,95157.03
2023-01-09T03:07:01.637Z,95157.88
2023-01-09T03:09:32.904Z,95155.34
2023-01-09T03:12:03.199Z,95157.88
2023-01-09T03:14:32.572Z,95157.03
2023-01-09T03:17:03.883Z,95158.75
2023-01-09T03:19:31.541Z,95152.84
2023-01-09T03:21:58.997Z,95154.53
2023-01-09T03:24:25.512Z,95154.53
2023-01-09T03:26:54.349Z,95155.34
2023-01-09T03:29:21.393Z,95153.69
2023-01-09T03:31:47.882Z,95154.53
2023-01-09T03:34:14.268Z,95156.25
2023-01-09T03:36:40.608Z,95162.16
2023-01-09T03:39:07.006Z,95158.75
2023-01-09T03:41:33.387Z,95163.00
2023-01-09T03:43:59.751Z,95171.41
2023-01-09T03:46:26.092Z,95162.09
2023-01-09T03:48:52.462Z,95163.84
2023-01-09T03:51:18.832Z,95162.97
2023-01-09T03:53:45.159Z,95167.19
2023-01-09T03:56:11.526Z,95173.13
2023-01-09T03:58:38.000Z,95179.06
2023-01-09T04:01:09.153Z,95174.84
2023-01-09T04:03:36.008Z,95177.38
2023-01-09T04:06:02.381Z,95166.38
2023-01-09T04:08:28.751Z,95163.84
2023-01-09T04:10:55.071Z,95154.59
2023-01-09T04:13:21.673Z,95151.22
2023-01-09T04:15:48.144Z,95157.09
2023-01-09T04:18:15.269Z,95167.25
2023-01-09T04:20:42.109Z,95165.63
2023-01-09T04:23:08.549Z,95175.78
2023-01-09T04:25:35.121Z,95183.31
2023-01-09T04:28:01.565Z,95186.63
2023-01-09T04:30:27.914Z,95185.78
2023-01-09T04:32:54.333Z,95184.97
2023-01-09T04:35:20.961Z,95192.56
2023-01-09T04:37:47.827Z,95190.06
2023-01-09T04:40:14.901Z,95193.38
2023-01-09T04:42:41.607Z,95193.31
2023-01-09T04:45:10.337Z,95193.41
2023-01-09T04:47:36.724Z,95192.53
2023-01-09T04:50:04.434Z,95190.84
2023-01-09T04:52:30.969Z,95194.25
2023-01-09T04:54:57.308Z,95199.28
2023-01-09T04:57:23.870Z,95199.22
2023-01-09T04:59:52.098Z,95192.47
2023-01-09T05:02:18.564Z,95202.59
2023-01-09T05:04:44.933Z,95210.19
2023-01-09T05:07:11.310Z,95211.91
2023-01-09T05:09:37.709Z,95217.78
2023-01-09T05:12:04.349Z,95219.44
2023-01-09T05:14:30.831Z,95221.97
2023-01-09T05:16:57.216Z,95216.03
2023-01-09T05:19:23.682Z,95230.34
2023-01-09T05:21:50.091Z,95227.00
2023-01-09T05:24:16.419Z,95235.41
2023-01-09T05:26:42.810Z,95235.38
2023-01-09T05:29:09.782Z,95237.13
2023-01-09T05:31:36.714Z,95235.41
2023-01-09T05:34:03.249Z,95232.88
2023-01-09T05:36:29.768Z,95229.47
2023-01-09T05:38:57.811Z,95231.22
2023-01-09T05:41:25.505Z,95239.63
2023-01-09T05:43:52.071Z,95251.44
2023-01-09T05:46:18.519Z,95252.28
2023-01-09T05:48:45.085Z,95251.50
2023-01-09T05:51:12.205Z,95248.94
2023-01-09T05:53:38.545Z,95259.06
2023-01-09T05:56:05.257Z,95264.13
2023-01-09T05:58:31.771Z,95265.81
2023-01-09T06:00:58.588Z,95279.38
2023-01-09T06:03:25.063Z,95301.28
2023-01-09T06:05:51.732Z,95289.53
2023-01-09T06:08:18.132Z,95291.25
2023-01-09T06:10:46.097Z,95303.88
2023-01-09T06:13:12.547Z,95295.47
2023-01-09T06:15:39.122Z,95284.53
2023-01-09T06:18:05.594Z,95292.22
2023-01-09T06:20:32.784Z,95290.50
2023-01-09T06:22:59.197Z,95279.53
2023-01-09T06:25:25.632Z,95288.03
2023-01-09T06:27:52.134Z,95288.03
2023-01-09T06:30:19.984Z,95295.63
2023-01-09T06:32:48.522Z,95292.22
2023-01-09T06:35:20.157Z,95288.81
2023-01-09T06:37:47.825Z,95292.28
2023-01-09T06:40:14.885Z,95294.81
2023-01-09T06:42:45.558Z,95283.03
2023-01-09T06:45:13.335Z,95286.38
2023-01-09T06:47:40.081Z,95285.63
2023-01-09T06:50:07.984Z,95290.75
2023-01-09T06:52:34.424Z,95280.66
2023-01-09T06:55:00.818Z,95282.44
2023-01-09T06:57:27.505Z,95283.31
2023-01-09T06:59:53.912Z,95284.28
2023-01-09T07:02:21.853Z,95281.78
2023-01-09T07:04:48.487Z,95292.84
2023-01-09T07:07:15.156Z,95296.28
2023-01-09T07:09:42.633Z,95311.53
2023-01-09T07:12:09.051Z,95299.75
2023-01-09T07:14:35.416Z,95312.50
2023-01-09T07:17:01.823Z,95319.25
2023-01-09T07:19:28.190Z,95330.28
2023-01-09T07:21:54.657Z,95332.88
2023-01-09T07:24:21.146Z,95343.91
2023-01-09T07:26:47.507Z,95342.25
2023-01-09T07:29:13.844Z,95335.50
2023-01-09T07:31:40.289Z,95345.66
2023-01-09T07:34:06.712Z,95360.09
2023-01-09T07:36:33.083Z,95352.47
2023-01-09T07:38:59.520Z,95360.97
2023-01-09T07:41:25.933Z,95371.13
2023-01-09T07:43:52.396Z,95382.13
2023-01-09T07:46:18.830Z,95366.91
2023-01-09T07:48:45.234Z,95384.69
2023-01-09T07:51:12.606Z,95386.38
2023-01-09T07:53:39.061Z,95399.09
2023-01-09T07:56:05.646Z,95399.13
2023-01-09T07:58:32.106Z,95401.69
2023-01-09T08:00:58.450Z,95421.97
2023-01-09T08:03:26.729Z,95431.34
2023-01-09T08:05:53.133Z,95424.56
2023-01-09T08:08:19.562Z,95428.84
2023-01-09T08:10:45.913Z,95426.31
2023-01-09T08:13:12.311Z,95442.41
2023-01-09T08:15:38.999Z,95443.22
2023-01-09T08:18:05.473Z,95456.78
2023-01-09T08:20:32.002Z,95465.25
2023-01-09T08:22:58.464Z,95464.41
2023-01-09T08:25:25.521Z,95468.66
2023-01-09T08:27:52.027Z,95477.13
2023-01-09T08:30:18.699Z,95481.34
2023-01-09T08:32:52.762Z,95475.44
2023-01-09T08:35:19.983Z,95485.59
2023-01-09T08:37:47.866Z,95483.91
2023-01-09T08:40:15.955Z,95485.63
2023-01-09T08:43:01.433Z,95489.84
2023-01-09T08:45:46.467Z,95496.63
2023-01-09T08:48:12.892Z,95508.50
2023-01-09T08:50:39.294Z,95511.06
2023-01-09T08:53:05.676Z,95505.97
2023-01-09T08:55:32.042Z,95505.13
2023-01-09T08:57:58.451Z,95511.06
2023-01-09T09:00:25.446Z,95500.06
2023-01-09T09:02:53.504Z,95502.59
2023-01-09T09:05:21.025Z,95515.34
2023-01-09T09:07:53.791Z,95516.19
2023-01-09T09:10:21.659Z,95528.84
2023-01-09T09:12:49.803Z,95536.47
2023-01-09T09:15:20.109Z,95533.94
2023-01-09T09:17:49.910Z,95539.03
2023-01-09T09:20:16.787Z,95540.69
2023-01-09T09:22:45.940Z,95539.00
2023-01-09T09:25:12.298Z,95542.44
2023-01-09T09:27:38.808Z,95541.56
2023-01-09T09:30:05.965Z,95539.03
2023-01-09T09:32:32.576Z,95543.25
2023-01-09T09:34:58.949Z,95537.34
2023-01-09T09:37:25.324Z,95543.28
2023-01-09T09:39:52.096Z,95550.88
2023-01-09T09:43:02.774Z,95551.72
2023-01-09T09:45:31.928Z,95554.22
2023-01-09T09:48:22.620Z,95546.66
2023-01-09T09:51:07.988Z,95541.59
2023-01-09T09:53:46.937Z,95543.31
2023-01-09T09:56:17.384Z,95548.41
2023-01-09T09:58:48.168Z,95553.44
2023-01-09T10:01:22.490Z,95557.66
2023-01-09T10:03:54.843Z,95557.69
2023-01-09T10:06:28.530Z,95550.97
2023-01-09T10:09:13.563Z,95544.16
2023-01-09T10:11:49.258Z,95540.75
2023-01-09T10:14:23.804Z,95541.63
2023-01-09T10:17:25.579Z,95536.53
2023-01-09T10:20:18.197Z,95546.72
2023-01-09T10:23:00.187Z,95558.56
2023-01-09T10:25:56.092Z,95573.03
2023-01-09T10:28:34.737Z,95573.00
2023-01-09T10:31:19.493Z,95572.16
2023-01-09T10:33:59.820Z,95563.72
2023-01-09T10:36:33.222Z,95564.53
2023-01-09T10:39:04.327Z,95567.09
2023-01-09T10:41:37.644Z,95571.31
2023-01-09T10:44:24.204Z,95575.59
2023-01-09T10:46:56.084Z,95578.09
2023-01-09T10:49:24.089Z,95581.53
2023-01-09T10:52:16.683Z,95580.66
2023-01-09T10:54:50.341Z,95573.88
2023-01-09T10:57:42.370Z,95567.09
2023-01-09T11:00:21.705Z,95564.53
2023-01-09T11:02:50.468Z,95564.56
2023-01-09T11:05:23.190Z,95563.72
2023-01-09T11:07:55.320Z,95566.28
2023-01-09T11:10:24.613Z,95562.06
2023-01-09T11:12:51.069Z,95569.69
2023-01-09T11:15:20.326Z,95578.19
2023-01-09T11:17:52.743Z,95569.69
2023-01-09T11:20:22.049Z,95566.34
2023-01-09T11:22:51.173Z,95572.25
2023-01-09T11:25:20.065Z,95568.00
2023-01-09T11:28:01.558Z,95571.41
2023-01-09T11:30:29.602Z,95572.28
2023-01-09T11:32:57.778Z,95561.25
2023-01-09T11:35:28.650Z,95557.00
2023-01-09T11:38:12.778Z,95564.66
2023-01-09T11:40:48.055Z,95574.81
2023-01-09T11:43:19.501Z,95564.63
2023-01-09T11:46:00.592Z,95570.59
2023-01-09T11:48:39.867Z,95573.13
2023-01-09T11:51:18.374Z,95580.75
2023-01-09T11:53:54.080Z,95573.97
2023-01-09T11:56:20.703Z,95573.09
2023-01-09T11:58:47.124Z,95568.00
2023-01-09T12:01:29.580Z,95576.50
2023-01-09T12:04:18.245Z,95578.19
2023-01-09T12:07:22.494Z,95578.19
2023-01-09T12:09:54.961Z,95573.09
2023-01-09T12:12:52.069Z,95575.66
2023-01-09T12:15:43.188Z,95568.88
2023-01-09T12:18:33.206Z,95575.66
2023-01-09T12:21:11.730Z,95576.50
2023-01-09T12:23:45.850Z,95573.97
2023-01-09T12:26:23.735Z,95576.50
2023-01-09T12:29:29.015Z,95581.59
2023-01-09T12:32:08.524Z,95579.91
2023-01-09T12:34:40.939Z,95579.91
2023-01-09T12:37:38.004Z,95582.44
2023-01-09T12:40:16.543Z,95584.97
2023-01-09T12:43:22.014Z,95578.22
2023-01-09T12:46:00.168Z,95575.66
2023-01-09T12:48:31.101Z,95579.88
2023-01-09T12:51:22.201Z,95586.66
2023-01-09T12:54:26.971Z,95590.91
2023-01-09T12:57:06.599Z,95596.84
2023-01-09T12:59:41.414Z,95600.25
2023-01-09T13:02:27.503Z,95590.94
2023-01-09T13:05:01.537Z,95592.66
2023-01-09T13:07:38.967Z,95594.34
2023-01-09T13:10:30.859Z,95581.66
2023-01-09T13:12:59.927Z,95576.53
2023-01-09T13:15:32.803Z,95589.25
2023-01-09T13:18:20.511Z,95586.72
2023-01-09T13:20:53.828Z,95588.41
2023-01-09T13:23:38.142Z,95588.44
2023-01-09T13:26:08.552Z,95591.81
2023-01-09T13:29:00.517Z,95591.81
2023-01-09T13:31:52.378Z,95588.44
2023-01-09T13:34:25.035Z,95581.69
2023-01-09T13:36:54.725Z,95588.47
2023-01-09T13:39:32.513Z,95585.06
2023-01-09T13:42:22.753Z,95589.28
2023-01-09T13:44:52.295Z,95589.31
2023-01-09T13:47:30.853Z,95596.91
2023-01-09T13:50:01.097Z,95597.75
2023-01-09T13:52:33.151Z,95598.63
2023-01-09T13:55:02.376Z,95599.44
2023-01-09T13:57:35.839Z,95598.59
2023-01-09T14:00:25.445Z,95605.41
2023-01-09T14:03:06.060Z,95600.31
2023-01-09T14:05:32.356Z,95609.63
2023-01-09T14:08:04.843Z,95596.06
2023-01-09T14:10:37.771Z,95605.38
2023-01-09T14:13:24.064Z,95605.44
2023-01-09T14:15:52.862Z,95602.91
2023-01-09T14:18:29.068Z,95605.50
2023-01-09T14:21:01.648Z,95597.00
2023-01-09T14:23:51.021Z,95592.75
2023-01-09T14:26:21.032Z,95602.09
2023-01-09T14:28:47.579Z,95595.31
2023-01-09T14:31:33.203Z,95607.16
2023-01-09T14:34:39.010Z,95608.81
2023-01-09T14:37:05.842Z,95600.34
2023-01-09T14:39:33.177Z,95610.53
2023-01-09T14:42:08.134Z,95608.81
2023-01-09T14:44:53.385Z,95609.69
2023-01-09T14:47:22.609Z,95613.88
2023-01-09T14:50:12.443Z,95607.94
2023-01-09T14:53:03.958Z,95615.53
2023-01-09T14:55:44.032Z,95629.09
2023-01-09T14:58:21.227Z,95631.63
2023-01-09T15:01:14.802Z,95636.69
2023-01-09T15:04:37.119Z,95632.41
2023-01-09T15:07:04.793Z,95630.72
2023-01-09T15:09:34.199Z,95639.19
2023-01-09T15:12:08.626Z,95639.16
2023-01-09T15:14:42.033Z,95642.56
2023-01-09T15:17:19.641Z,95648.50
2023-01-09T15:19:46.909Z,95640.88
2023-01-09T15:22:33.779Z,95641.72
2023-01-09T15:25:15.844Z,95643.41
2023-01-09T15:27:56.253Z,95644.25
2023-01-09T15:30:35.316Z,95639.13
2023-01-09T15:33:15.294Z,95643.34
2023-01-09T15:35:43.686Z,95641.63
2023-01-09T15:38:17.637Z,95642.41
2023-01-09T15:40:52.414Z,95658.47
2023-01-09T15:43:18.971Z,95653.34
2023-01-09T15:45:46.310Z,95655.81
2023-01-09T15:48:33.264Z,95657.44
2023-01-09T15:51:06.460Z,95665.88
2023-01-09T15:53:33.237Z,95664.13
2023-01-09T15:56:07.847Z,95672.53
2023-01-09T15:58:36.703Z,95678.50
2023-01-09T16:01:07.736Z,95680.13
2023-01-09T16:03:37.260Z,95686.00
2023-01-09T16:06:23.548Z,95681.72
2023-01-09T16:08:53.653Z,95691.03
2023-01-09T16:11:24.140Z,95688.47
2023-01-09T16:13:51.668Z,95693.50
2023-01-09T16:16:28.910Z,95700.34
2023-01-09T16:18:56.463Z,95699.59
2023-01-09T16:21:24.414Z,95706.34
2023-01-09T16:23:59.528Z,95703.84
2023-01-09T16:26:28.032Z,95707.25
2023-01-09T16:28:54.876Z,95710.66
2023-01-09T16:31:25.721Z,95709.78
2023-01-09T16:34:04.474Z,95719.13
2023-01-09T16:36:31.170Z,95726.75
2023-01-09T16:38:58.295Z,95711.53
2023-01-09T16:41:43.284Z,95716.59
2023-01-09T16:44:11.134Z,95723.44
2023-01-09T16:46:40.552Z,95722.56
2023-01-09T16:49:19.320Z,95731.00
2023-01-09T16:51:46.523Z,95723.22
2023-01-09T16:54:12.995Z,95724.88
2023-01-09T16:56:41.005Z,95721.47
2023-01-09T16:59:15.053Z,95729.06
2023-01-09T17:01:43.275Z,95723.09
2023-01-09T17:04:12.810Z,95729.03
2023-01-09T17:06:41.741Z,95731.59
2023-01-09T17:09:12.250Z,95732.50
2023-01-09T17:11:39.818Z,95728.31
2023-01-09T17:14:07.233Z,95733.44
2023-01-09T17:16:37.740Z,95730.00
2023-01-09T17:19:05.184Z,95724.94
2023-01-09T17:21:32.038Z,95725.69
2023-01-09T17:24:18.116Z,95738.41
2023-01-09T17:27:08.010Z,95742.56
2023-01-09T17:29:35.278Z,95739.09
2023-01-09T17:32:01.880Z,95744.09
2023-01-09T17:34:28.394Z,95754.19
2023-01-09T17:36:55.672Z,95751.59
2023-01-09T17:39:22.964Z,95767.66
2023-01-09T17:41:49.614Z,95772.69
2023-01-09T17:44:15.975Z,95767.59
2023-01-09T17:46:43.994Z,95773.47
2023-01-09T17:49:16.888Z,95769.16
2023-01-09T17:51:43.413Z,95778.41
2023-01-09T17:54:09.963Z,95773.41
2023-01-09T17:56:39.264Z,95784.44
2023-01-09T17:59:09.408Z,95781.81
2023-01-09T18:01:36.093Z,95791.00
2023-01-09T18:04:02.591Z,95795.91
2023-01-09T18:06:29.316Z,95806.84
2023-01-09T18:08:58.097Z,95812.63
2023-01-09T18:11:24.753Z,95812.56
2023-01-09T18:13:53.964Z,95831.13
2023-01-09T18:16:25.951Z,95829.50
2023-01-09T18:18:53.866Z,95834.63
2023-01-09T18:21:22.928Z,95824.59
2023-01-09T18:23:50.220Z,95822.94
2023-01-09T18:26:20.924Z,95828.00
2023-01-09T18:28:54.436Z,95833.06
2023-01-09T18:31:24.548Z,95832.25
2023-01-09T18:33:52.494Z,95831.41
2023-01-09T18:36:23.774Z,95829.69
2023-01-09T18:38:53.659Z,95837.38
2023-01-09T18:41:21.299Z,95845.88
2023-01-09T18:43:52.168Z,95845.84
2023-01-09T18:46:23.816Z,95844.06
2023-01-09T18:48:57.827Z,95856.72
2023-01-09T18:51:26.377Z,95851.53
2023-01-09T18:53:53.826Z,95859.88
2023-01-09T18:56:20.722Z,95854.81
2023-01-09T18:58:48.339Z,95866.66
2023-01-09T19:01:15.902Z,95867.50
2023-01-09T19:03:42.498Z,95869.13
2023-01-09T19:06:09.116Z,95868.28
2023-01-09T19:08:36.300Z,95875.94
2023-01-09T19:11:03.749Z,95876.00
2023-01-09T19:13:32.708Z,95882.78
2023-01-09T19:16:00.083Z,95880.25
2023-01-09T19:18:27.936Z,95888.63
2023-01-09T19:20:55.249Z,95897.06
2023-01-09T19:23:26.025Z,95903.63
2023-01-09T19:25:53.840Z,95911.22
2023-01-09T19:28:21.284Z,95914.56
2023-01-09T19:30:53.648Z,95921.22
2023-01-09T19:33:19.985Z,95922.97
2023-01-09T19:35:48.901Z,95924.59
2023-01-09T19:38:15.355Z,95929.50
2023-01-09T19:40:41.918Z,95936.25
2023-01-09T19:43:08.336Z,95939.72
2023-01-09T19:45:34.795Z,95928.75
2023-01-09T19:48:01.231Z,95930.44
2023-01-09T19:50:27.610Z,95932.94
2023-01-09T19:52:54.673Z,95938.84
2023-01-09T19:55:21.361Z,95930.41
2023-01-09T19:57:47.717Z,95931.97
2023-01-09T20:00:14.721Z,95931.28
2023-01-09T20:02:41.678Z,95937.16
2023-01-09T20:05:08.829Z,95940.53
2023-01-09T20:07:35.181Z,95950.63
2023-01-09T20:10:01.614Z,95954.13
2023-01-09T20:12:28.001Z,95953.25
2023-01-09T20:14:54.406Z,95953.16
2023-01-09T20:17:20.882Z,95957.41
2023-01-09T20:19:47.320Z,95959.13
2023-01-09T20:22:13.895Z,95967.63
2023-01-09T20:24:40.275Z,95969.38
2023-01-09T20:27:07.205Z,95977.75
2023-01-09T20:29:34.264Z,95984.56
2023-01-09T20:32:01.347Z,95988.06
2023-01-09T20:34:27.894Z,95995.66
2023-01-09T20:36:54.751Z,96005.75
2023-01-09T20:39:21.368Z,96003.13
2023-01-09T20:41:48.206Z,96018.41
2023-01-09T20:44:15.760Z,96020.13
2023-01-09T20:46:47.241Z,96027.09
2023-01-09T20:49:16.100Z,96022.81
2023-01-09T20:51:46.551Z,96027.09
2023-01-09T20:54:14.570Z,96025.41
2023-01-09T20:56:41.261Z,96031.34
2023-01-09T20:59:12.469Z,96038.00
2023-01-09T21:01:40.189Z,96036.38
2023-01-09T21:04:08.613Z,96040.66
2023-01-09T21:06:36.027Z,96043.34
2023-01-09T21:09:03.262Z,96038.34
2023-01-09T21:11:29.950Z,96043.50
2023-01-09T21:13:57.288Z,96042.69
2023-01-09T21:16:24.906Z,96046.81
2023-01-09T21:18:53.379Z,96038.47
2023-01-09T21:21:23.585Z,96043.56
2023-01-09T21:23:52.463Z,96045.25
2023-01-09T21:26:22.967Z,96041.94
2023-01-09T21:28:54.321Z,96042.75
2023-01-09T21:31:30.728Z,96041.00
2023-01-09T21:33:57.513Z,96046.06
2023-01-09T21:36:23.972Z,96054.53
2023-01-09T21:38:54.438Z,96045.16
2023-01-09T21:41:40.114Z,96042.69
2023-01-09T21:44:25.539Z,96053.72
2023-01-09T21:46:52.119Z,96055.34
2023-01-09T21:49:25.321Z,96051.97
2023-01-09T21:51:53.706Z,96059.59
2023-01-09T21:54:21.399Z,96058.63
2023-01-09T21:56:47.806Z,96063.72
2023-01-09T21:59:14.358Z,96065.47
2023-01-09T22:01:40.803Z,96070.56
2023-01-09T22:04:07.253Z,96077.41
2023-01-09T22:06:34.963Z,96077.41
2023-01-09T22:09:01.451Z,96079.78
2023-01-09T22:11:29.090Z,96090.91
2023-01-09T22:13:57.368Z,96091.69
2023-01-09T22:16:27.195Z,96086.63
2023-01-09T22:18:55.147Z,96101.84
2023-01-09T22:21:23.062Z,96106.22
2023-01-09T22:23:49.664Z,96098.56
2023-01-09T22:26:17.343Z,96099.50
2023-01-09T22:28:44.652Z,96096.06
2023-01-09T22:31:14.137Z,96102.81
2023-01-09T22:33:40.644Z,96104.50
2023-01-09T22:36:10.417Z,96112.91
2023-01-09T22:38:37.560Z,96113.06
2023-01-09T22:41:04.397Z,96115.59
2023-01-09T22:43:31.194Z,96111.28
2023-01-09T22:46:09.124Z,96102.78
2023-01-09T22:48:37.561Z,96117.19
2023-01-09T22:51:12.743Z,96112.94
2023-01-09T22:53:39.605Z,96117.22
2023-01-09T22:56:10.591Z,96125.59
2023-01-09T22:58:37.052Z,96116.31
2023-01-09T23:01:04.615Z,96120.56
2023-01-09T23:03:31.205Z,96127.22
2023-01-09T23:06:02.530Z,96121.22
2023-01-09T23:08:29.083Z,96123.81
2023-01-09T23:10:55.619Z,96122.00
2023-01-09T23:13:22.439Z,96131.41
2023-01-09T23:15:49.530Z,96127.19
2023-01-09T23:18:16.031Z,96134.84
2023-01-09T23:20:49.331Z,96132.28
2023-01-09T23:23:15.972Z,96129.72
2023-01-09T23:25:48.131Z,96133.88
2023-01-09T23:28:14.441Z,96137.03
2023-01-09T23:30:40.845Z,96136.97
2023-01-09T23:33:07.172Z,96147.13
2023-01-09T23:35:33.569Z,96160.56
2023-01-09T23:38:00.045Z,96154.59
2023-01-09T23:40:26.470Z,96162.03
2023-01-09T23:43:11.050Z,96166.41
2023-01-09T23:45:46.216Z,96155.50
2023-01-09T23:48:16.016Z,96164.88
2023-01-09T23:50:43.024Z,96170.63
2023-01-09T23:53:09.491Z,96177.44
2023-01-09T23:55:37.213Z,96179.00
2023-01-09T23:58:03.885Z,96178.78
